createdAt,value
2022-10-27T00:01:43.955Z,28.75
2022-10-27T00:04:17.568Z,29.38
2022-10-27T00:06:51.082Z,30.98
2022-10-27T00:09:24.573Z,28.05
2022-10-27T00:11:58.111Z,30.13
2022-10-27T00:14:33.020Z,29.13
2022-10-27T00:17:06.535Z,27.88
2022-10-27T00:19:39.952Z,29.15
2022-10-27T00:22:13.363Z,29.90
2022-10-27T00:24:46.797Z,27.75
2022-10-27T00:27:20.272Z,29.48
2022-10-27T00:29:55.135Z,27.38
2022-10-27T00:32:28.521Z,29.13
2022-10-27T00:35:01.965Z,28.30
2022-10-27T00:37:35.414Z,27.80
2022-10-27T00:40:09.942Z,27.20
2022-10-27T00:42:49.070Z,27.67
2022-10-27T00:45:23.943Z,27.70
2022-10-27T00:47:57.365Z,28.42
2022-10-27T00:50:30.735Z,26.05
2022-10-27T00:53:04.318Z,28.92
2022-10-27T00:55:41.316Z,26.67
2022-10-27T00:58:20.197Z,27.25
2022-10-27T01:00:55.104Z,26.67
2022-10-27T01:03:28.810Z,27.50
2022-10-27T01:06:03.006Z,25.80
2022-10-27T01:08:37.299Z,27.10
2022-10-27T01:11:10.702Z,26.45
2022-10-27T01:13:44.412Z,27.33
2022-10-27T01:16:27.265Z,26.90
2022-10-27T01:19:13.569Z,27.25
2022-10-27T01:21:59.348Z,27.90
2022-10-27T01:25:01.086Z,27.30
2022-10-27T01:28:10.047Z,27.33
2022-10-27T01:31:02.963Z,27.33
2022-10-27T01:33:41.872Z,26.77
2022-10-27T01:36:21.857Z,26.08
2022-10-27T01:39:00.636Z,26.67
2022-10-27T01:44:24.251Z,25.13
2022-10-27T01:46:59.630Z,27.90
2022-10-27T01:49:39.888Z,25.60
2022-10-27T01:52:40.314Z,26.70
2022-10-27T01:55:21.913Z,24.45
2022-10-27T01:58:13.521Z,24.83
2022-10-27T02:00:59.868Z,25.27
2022-10-27T02:03:41.228Z,25.52
2022-10-27T02:06:23.991Z,25.05
2022-10-27T02:09:05.618Z,25.45
2022-10-27T02:11:43.357Z,26.73
2022-10-27T02:14:17.444Z,24.70
2022-10-27T02:16:54.733Z,24.40
2022-10-27T02:19:34.689Z,25.00
2022-10-27T02:22:08.696Z,25.77
2022-10-27T02:24:42.330Z,25.52
2022-10-27T02:27:24.147Z,25.67
2022-10-27T02:30:00.431Z,25.63
2022-10-27T02:32:35.244Z,25.50
2022-10-27T02:35:12.473Z,24.33
2022-10-27T02:37:47.186Z,25.10
2022-10-27T02:40:20.772Z,24.77
2022-10-27T02:42:54.377Z,25.85
2022-10-27T02:45:27.989Z,24.27
2022-10-27T02:48:01.412Z,24.17
2022-10-27T02:50:36.526Z,23.60
2022-10-27T02:53:10.061Z,23.60
2022-10-27T02:55:43.613Z,24.85
2022-10-27T02:58:17.106Z,23.98
2022-10-27T03:00:55.913Z,23.77
2022-10-27T03:03:29.572Z,24.38
2022-10-27T03:06:04.502Z,23.77
2022-10-27T03:08:37.961Z,23.15
2022-10-27T03:11:11.529Z,24.75
2022-10-27T03:13:44.988Z,24.33
2022-10-27T03:16:18.637Z,24.35
2022-10-27T03:18:52.344Z,25.42
2022-10-27T03:21:27.262Z,23.85
2022-10-27T03:24:00.941Z,26.65
2022-10-27T03:26:34.567Z,25.17
2022-10-27T03:29:11.153Z,25.85
2022-10-27T03:31:44.823Z,25.58
2022-10-27T03:34:20.262Z,24.58
2022-10-27T03:36:56.370Z,23.77
2022-10-27T03:39:29.929Z,26.17
2022-10-27T03:42:03.682Z,25.08
2022-10-27T03:44:37.129Z,25.50
2022-10-27T03:47:11.727Z,24.08
2022-10-27T03:49:45.198Z,25.83
2022-10-27T03:52:22.044Z,25.35
2022-10-27T03:54:55.484Z,24.33
2022-10-27T03:57:29.024Z,23.88
2022-10-27T04:00:02.444Z,23.52
2022-10-27T04:02:45.244Z,23.88
2022-10-27T04:05:18.728Z,24.10
2022-10-27T04:07:53.776Z,24.60
2022-10-27T04:10:27.629Z,23.48
2022-10-27T04:13:01.238Z,24.98
2022-10-27T04:15:34.700Z,25.27
2022-10-27T04:18:08.355Z,24.85
2022-10-27T04:20:42.096Z,25.45
2022-10-27T04:28:23.537Z,23.17
2022-10-27T04:30:57.081Z,25.08
2022-10-27T04:33:30.607Z,25.17
2022-10-27T04:36:05.597Z,23.27
2022-10-27T04:38:40.994Z,24.90
2022-10-27T04:41:14.456Z,24.77
2022-10-27T04:46:25.567Z,23.55
2022-10-27T04:48:59.195Z,26.88
2022-10-27T04:51:32.677Z,24.17
2022-10-27T04:54:07.814Z,25.08
2022-10-27T04:56:41.311Z,26.00
2022-10-27T04:59:15.074Z,25.73
2022-10-27T05:01:48.668Z,22.85
2022-10-27T05:04:22.186Z,24.02
2022-10-27T05:06:55.684Z,24.02
2022-10-27T05:09:30.718Z,24.38
2022-10-27T05:12:04.250Z,24.65
2022-10-27T05:14:39.712Z,25.70
2022-10-27T05:17:16.800Z,25.67
2022-10-27T05:19:52.553Z,23.83
2022-10-27T05:22:25.995Z,25.45
2022-10-27T05:25:00.799Z,24.98
2022-10-27T05:27:34.427Z,25.73
2022-10-27T05:30:09.997Z,25.13
2022-10-27T05:32:44.997Z,26.48
2022-10-27T05:35:20.877Z,25.80
2022-10-27T05:37:54.601Z,26.33
2022-10-27T05:40:34.665Z,24.98
2022-10-27T05:43:08.217Z,24.40
2022-10-27T05:45:41.747Z,25.55
2022-10-27T05:48:15.222Z,26.40
2022-10-27T05:50:53.983Z,25.20
2022-10-27T05:53:27.398Z,26.38
2022-10-27T05:56:02.289Z,27.13
2022-10-27T05:58:38.964Z,29.60
2022-10-27T06:01:12.911Z,28.40
2022-10-27T06:03:46.491Z,28.75
2022-10-27T06:06:19.874Z,29.45
2022-10-27T06:08:53.368Z,25.90
2022-10-27T06:11:28.305Z,25.38
2022-10-27T06:14:01.778Z,27.50
2022-10-27T06:16:35.403Z,26.77
2022-10-27T06:19:08.832Z,26.50
2022-10-27T06:21:42.245Z,27.23
2022-10-27T06:24:15.765Z,25.02
2022-10-27T06:26:53.194Z,29.35
2022-10-27T06:29:29.591Z,25.23
2022-10-27T06:32:03.214Z,26.40
2022-10-27T06:34:36.731Z,25.35
2022-10-27T06:37:10.331Z,24.52
2022-10-27T06:39:44.213Z,25.98
2022-10-27T06:44:57.569Z,25.85
2022-10-27T06:47:36.785Z,25.27
2022-10-27T06:50:13.918Z,26.65
2022-10-27T06:52:51.629Z,24.52
2022-10-27T06:55:28.865Z,25.88
2022-10-27T06:58:03.780Z,25.52
2022-10-27T07:00:38.096Z,25.60
2022-10-27T07:03:12.226Z,25.00
2022-10-27T07:05:45.690Z,25.35
2022-10-27T07:08:19.185Z,25.38
2022-10-27T07:10:52.711Z,23.88
2022-10-27T07:13:29.736Z,24.83
2022-10-27T07:16:03.485Z,23.00
2022-10-27T07:18:40.028Z,23.13
2022-10-27T07:21:14.364Z,22.73
2022-10-27T07:23:49.973Z,22.50
2022-10-27T07:26:26.162Z,23.88
2022-10-27T07:29:00.988Z,23.98
2022-10-27T07:31:34.463Z,22.38
2022-10-27T07:34:07.881Z,22.10
2022-10-27T07:36:41.324Z,20.88
2022-10-27T07:39:14.721Z,21.92
2022-10-27T07:41:48.164Z,21.55
2022-10-27T07:44:28.524Z,20.00
2022-10-27T07:47:01.973Z,21.45
2022-10-27T07:49:43.377Z,21.42
2022-10-27T07:52:17.259Z,20.58
2022-10-27T07:54:56.003Z,20.38
2022-10-27T07:57:29.406Z,20.42
2022-10-27T08:00:04.439Z,20.65
2022-10-27T08:02:46.075Z,20.15
2022-10-27T08:05:19.862Z,20.48
2022-10-27T08:07:53.776Z,20.30
2022-10-27T08:10:28.040Z,19.13
2022-10-27T08:13:01.588Z,19.63
2022-10-27T08:15:37.551Z,20.08
2022-10-27T08:18:15.031Z,18.73
2022-10-27T08:20:49.370Z,18.40
2022-10-27T08:23:25.792Z,18.27
2022-10-27T08:25:59.457Z,17.70
2022-10-27T08:28:32.940Z,17.98
2022-10-27T08:31:08.174Z,18.98
2022-10-27T08:33:44.361Z,17.60
2022-10-27T08:36:18.567Z,16.77
2022-10-27T08:38:52.001Z,17.38
2022-10-27T08:41:32.062Z,18.80
2022-10-27T08:44:21.576Z,18.20
2022-10-27T08:47:00.855Z,16.90
2022-10-27T08:49:49.019Z,19.65
2022-10-27T08:52:29.350Z,16.40
2022-10-27T08:55:19.131Z,16.65
2022-10-27T08:58:01.746Z,16.92
2022-10-27T09:00:45.816Z,15.52
2022-10-27T09:03:38.745Z,16.42
2022-10-27T09:06:19.434Z,15.10
2022-10-27T09:09:01.632Z,14.38
2022-10-27T09:11:46.033Z,14.40
2022-10-27T09:14:34.790Z,17.35
2022-10-27T09:17:13.863Z,15.73
2022-10-27T09:19:53.555Z,15.60
2022-10-27T09:22:27.994Z,14.82
2022-10-27T09:25:06.086Z,14.75
2022-10-27T09:27:40.598Z,15.10
2022-10-27T09:30:15.916Z,13.98
2022-10-27T09:32:53.874Z,18.13
2022-10-27T09:35:30.172Z,14.48
2022-10-27T09:38:04.641Z,15.02
2022-10-27T09:40:38.902Z,14.38
2022-10-27T09:43:12.851Z,14.50
2022-10-27T09:45:49.745Z,13.43
2022-10-27T09:48:26.848Z,13.55
2022-10-27T09:51:08.301Z,13.80
2022-10-27T09:53:44.963Z,14.70
2022-10-27T09:56:24.837Z,14.07
2022-10-27T09:59:02.823Z,14.30
2022-10-27T10:01:57.507Z,13.90
2022-10-27T10:04:33.228Z,12.25
2022-10-27T10:07:08.980Z,12.60
2022-10-27T10:09:42.892Z,13.35
2022-10-27T10:12:23.874Z,13.80
2022-10-27T10:15:21.540Z,13.32
2022-10-27T10:18:00.178Z,12.60
2022-10-27T10:23:24.923Z,10.88
2022-10-27T10:26:00.130Z,10.60
2022-10-27T10:28:37.175Z,10.70
2022-10-27T10:31:14.000Z,10.82
2022-10-27T10:33:49.216Z,10.02
2022-10-27T10:36:29.284Z,9.75
2022-10-27T10:39:21.976Z,10.05
2022-10-27T10:42:19.364Z,10.25
2022-10-27T10:45:11.438Z,11.65
2022-10-27T10:47:49.475Z,10.98
2022-10-27T10:50:24.112Z,10.60
2022-10-27T10:53:00.444Z,11.02
2022-10-27T10:55:39.652Z,9.85
2022-10-27T10:58:17.314Z,10.57
2022-10-27T11:00:56.224Z,9.20
2022-10-27T11:03:34.488Z,9.40
2022-10-27T11:06:19.068Z,10.60
2022-10-27T11:09:00.683Z,9.52
2022-10-27T11:11:45.273Z,10.15
2022-10-27T11:14:20.178Z,9.38
2022-10-27T11:16:57.343Z,8.35
2022-10-27T11:19:37.163Z,8.85
2022-10-27T11:22:17.014Z,8.68
2022-10-27T11:24:57.294Z,8.32
2022-10-27T11:27:41.131Z,9.25
2022-10-27T11:30:23.206Z,9.50
2022-10-27T11:33:09.873Z,9.15
2022-10-27T11:35:51.760Z,8.73
2022-10-27T11:38:34.477Z,9.73
2022-10-27T11:41:17.107Z,9.52
2022-10-27T11:44:04.658Z,8.82
2022-10-27T11:46:45.907Z,9.43
2022-10-27T11:49:29.007Z,9.70
2022-10-27T11:52:10.766Z,9.55
2022-10-27T11:54:44.447Z,8.68
2022-10-27T11:57:40.045Z,8.27
2022-10-27T12:00:21.797Z,7.22
2022-10-27T12:03:54.554Z,8.10
2022-10-27T12:06:40.204Z,7.40
2022-10-27T12:09:22.954Z,7.95
2022-10-27T12:12:06.356Z,8.25
2022-10-27T12:14:47.184Z,7.90
2022-10-27T12:17:31.803Z,7.57
2022-10-27T12:20:08.980Z,8.07
2022-10-27T12:22:48.210Z,7.78
2022-10-27T12:25:25.272Z,8.18
2022-10-27T12:28:02.256Z,7.07
2022-10-27T12:30:37.891Z,6.50
2022-10-27T12:33:20.264Z,7.38
2022-10-27T12:38:39.018Z,7.18
2022-10-27T12:41:29.028Z,6.70
2022-10-27T12:44:18.980Z,6.05
2022-10-27T12:47:15.606Z,7.18
2022-10-27T12:50:03.276Z,7.03
2022-10-27T12:52:44.588Z,6.70
2022-10-27T12:55:32.810Z,5.63
2022-10-27T12:58:11.418Z,6.13
2022-10-27T13:00:51.142Z,6.28
2022-10-27T13:03:55.626Z,6.10
2022-10-27T13:06:48.634Z,6.00
2022-10-27T13:10:05.427Z,6.03
2022-10-27T13:12:53.482Z,6.25
2022-10-27T13:15:55.274Z,6.80
2022-10-27T13:18:51.832Z,6.95
2022-10-27T13:21:34.674Z,6.93
2022-10-27T13:24:24.396Z,7.00
2022-10-27T13:27:05.514Z,6.75
2022-10-27T13:29:44.319Z,6.80
2022-10-27T13:32:19.543Z,6.60
2022-10-27T13:35:22.775Z,7.53
2022-10-27T13:38:28.568Z,7.40
2022-10-27T13:41:05.499Z,7.28
2022-10-27T13:43:50.161Z,6.75
2022-10-27T13:47:10.944Z,6.75
2022-10-27T13:50:04.840Z,6.53
2022-10-27T13:52:40.646Z,6.90
2022-10-27T13:55:36.236Z,7.20
2022-10-27T13:58:38.429Z,7.07
2022-10-27T14:01:36.613Z,8.48
2022-10-27T14:04:27.372Z,6.68
2022-10-27T14:07:03.121Z,6.15
2022-10-27T14:09:40.007Z,6.68
2022-10-27T14:12:20.959Z,7.78
2022-10-27T14:15:04.018Z,7.57
2022-10-27T14:17:37.873Z,8.18
2022-10-27T14:20:20.546Z,7.50
2022-10-27T14:22:58.770Z,7.90
2022-10-27T14:25:33.386Z,8.23
2022-10-27T14:28:15.262Z,8.25
2022-10-27T14:31:10.360Z,8.90
2022-10-27T14:33:46.708Z,9.32
2022-10-27T14:36:33.440Z,9.27
2022-10-27T14:39:24.094Z,10.40
2022-10-27T14:42:04.425Z,8.95
2022-10-27T14:44:37.995Z,8.68
2022-10-27T14:47:16.228Z,9.00
2022-10-27T14:49:52.550Z,8.75
2022-10-27T14:52:35.649Z,9.02
2022-10-27T14:55:19.512Z,8.95
2022-10-27T14:57:54.752Z,8.48
2022-10-27T15:00:32.456Z,8.10
2022-10-27T15:03:09.004Z,9.50
2022-10-27T15:05:47.294Z,9.00
2022-10-27T15:08:22.934Z,10.88
2022-10-27T15:11:02.480Z,9.57
2022-10-27T15:13:36.935Z,9.63
2022-10-27T15:16:17.806Z,11.25
2022-10-27T15:18:53.217Z,10.75
2022-10-27T15:21:28.289Z,11.82
2022-10-27T15:24:09.695Z,13.75
2022-10-27T15:26:43.713Z,19.08
2022-10-27T15:29:20.686Z,20.88
2022-10-27T15:32:11.682Z,20.27
2022-10-27T15:34:46.970Z,21.85
2022-10-27T15:37:30.535Z,21.42
2022-10-27T15:40:36.462Z,20.33
2022-10-27T15:43:27.430Z,18.27
2022-10-27T15:46:13.077Z,19.08
2022-10-27T15:48:52.921Z,20.95
2022-10-27T15:51:44.165Z,22.02
2022-10-27T15:54:26.290Z,23.65
2022-10-27T15:57:02.411Z,25.92
2022-10-27T15:59:42.659Z,24.95
2022-10-27T16:02:46.226Z,24.77
2022-10-27T16:05:55.026Z,24.75
2022-10-27T16:08:41.967Z,23.58
2022-10-27T16:11:16.411Z,25.95
2022-10-27T16:13:53.455Z,25.23
2022-10-27T16:16:27.646Z,23.80
2022-10-27T16:19:03.257Z,26.15
2022-10-27T16:21:36.742Z,25.40
2022-10-27T16:26:53.074Z,27.55
2022-10-27T16:29:28.119Z,32.83
2022-10-27T16:32:02.898Z,33.70
2022-10-27T16:34:36.465Z,38.72
2022-10-27T16:37:19.021Z,40.55
2022-10-27T16:39:56.137Z,44.58
2022-10-27T16:42:31.675Z,40.33
2022-10-27T16:45:05.602Z,40.28
2022-10-27T16:47:39.313Z,39.75
2022-10-27T16:50:13.198Z,39.47
2022-10-27T16:52:53.481Z,40.92
2022-10-27T16:55:28.498Z,37.47
2022-10-27T16:58:04.041Z,36.25
2022-10-27T17:00:40.660Z,30.80
2022-10-27T17:03:16.531Z,30.90
2022-10-27T17:05:50.844Z,30.77
2022-10-27T17:08:29.050Z,28.70
2022-10-27T17:11:08.663Z,30.33
2022-10-27T17:13:44.992Z,30.70
2022-10-27T17:16:19.481Z,30.30
2022-10-27T17:18:54.087Z,48.40
2022-10-27T17:21:32.655Z,51.20
2022-10-27T17:24:06.880Z,55.97
2022-10-27T17:26:41.736Z,46.38
2022-10-27T17:29:15.443Z,42.63
2022-10-27T17:31:48.992Z,44.45
2022-10-27T17:36:58.235Z,56.47
2022-10-27T17:42:09.820Z,54.92
2022-10-27T17:44:43.464Z,55.67
2022-10-27T17:49:55.383Z,51.50
2022-10-27T17:52:33.769Z,51.42
2022-10-27T17:55:11.122Z,53.25
2022-10-27T17:57:48.008Z,55.05
2022-10-27T18:00:26.772Z,55.88
2022-10-27T18:03:00.486Z,53.72
2022-10-27T18:05:45.742Z,54.35
2022-10-27T18:08:19.487Z,54.20
2022-10-27T18:10:53.359Z,54.33
2022-10-27T18:13:33.941Z,55.47
2022-10-27T18:16:11.742Z,53.25
2022-10-27T18:18:45.551Z,50.67
2022-10-27T18:21:19.632Z,51.67
2022-10-27T18:23:56.250Z,56.40
2022-10-27T18:26:30.939Z,53.28
2022-10-27T18:29:06.707Z,53.05
2022-10-27T18:31:41.409Z,49.95
2022-10-27T18:34:17.053Z,48.05
2022-10-27T18:36:50.456Z,47.08
2022-10-27T18:39:24.345Z,54.97
2022-10-27T18:44:37.845Z,55.50
2022-10-27T18:47:11.280Z,53.20
2022-10-27T18:49:48.771Z,51.08
2022-10-27T18:52:22.502Z,51.58
2022-10-27T18:54:56.081Z,51.00
2022-10-27T18:57:32.647Z,52.45
2022-10-27T19:00:09.680Z,52.72
2022-10-27T19:02:43.257Z,55.58
2022-10-27T19:05:21.768Z,54.28
2022-10-27T19:07:55.372Z,53.55
2022-10-27T19:13:01.949Z,49.20
2022-10-27T19:15:37.000Z,49.80
2022-10-27T19:18:10.819Z,51.50
2022-10-27T19:20:45.648Z,50.72
2022-10-27T19:23:19.060Z,50.75
2022-10-27T19:25:53.272Z,50.30
2022-10-27T19:28:26.706Z,52.38
2022-10-27T19:31:01.814Z,51.95
2022-10-27T19:33:35.333Z,52.70
2022-10-27T19:36:10.853Z,51.08
2022-10-27T19:38:44.439Z,52.47
2022-10-27T19:41:20.108Z,50.70
2022-10-27T19:43:55.925Z,58.72
2022-10-27T19:46:31.346Z,53.75
2022-10-27T19:49:06.380Z,49.15
2022-10-27T19:51:43.000Z,49.40
2022-10-27T19:54:20.830Z,50.70
2022-10-27T19:56:54.421Z,48.70
2022-10-27T19:59:27.859Z,49.15
2022-10-27T20:02:05.363Z,49.63
2022-10-27T20:04:39.987Z,48.53
2022-10-27T20:07:13.405Z,46.65
2022-10-27T20:09:46.834Z,50.78
2022-10-27T20:12:21.492Z,48.28
2022-10-27T20:14:54.926Z,47.50
2022-10-27T20:17:29.841Z,48.25
2022-10-27T20:20:03.260Z,47.55
2022-10-27T20:22:36.799Z,51.35
2022-10-27T20:25:10.889Z,47.60
2022-10-27T20:27:46.058Z,45.67
2022-10-27T20:30:19.533Z,45.63
2022-10-27T20:32:54.573Z,44.75
2022-10-27T20:35:28.115Z,50.15
2022-10-27T20:38:07.059Z,47.72
2022-10-27T20:40:43.607Z,47.50
2022-10-27T20:43:17.079Z,49.30
2022-10-27T20:45:56.218Z,47.10
2022-10-27T20:48:31.326Z,46.95
2022-10-27T20:51:11.807Z,46.70
2022-10-27T20:53:56.546Z,48.30
2022-10-27T20:56:31.663Z,47.40
2022-10-27T20:59:06.274Z,48.28
2022-10-27T21:01:41.385Z,48.55
2022-10-27T21:04:18.158Z,60.33
2022-10-27T21:06:53.091Z,54.75
2022-10-27T21:09:26.613Z,44.63
2022-10-27T21:12:00.471Z,46.58
2022-10-27T21:14:36.852Z,47.42
2022-10-27T21:17:17.055Z,47.13
2022-10-27T21:20:13.325Z,48.15
2022-10-27T21:22:46.875Z,46.67
2022-10-27T21:25:22.901Z,45.88
2022-10-27T21:27:57.408Z,44.08
2022-10-27T21:30:30.962Z,44.17
2022-10-27T21:35:39.460Z,41.88
2022-10-27T21:38:13.037Z,44.15
2022-10-27T21:40:51.583Z,46.20
2022-10-27T21:43:25.072Z,42.45
2022-10-27T21:45:59.238Z,42.42
2022-10-27T21:48:33.331Z,42.55
2022-10-27T21:51:13.334Z,46.50
2022-10-27T21:53:47.035Z,44.80
2022-10-27T21:58:58.415Z,46.40
2022-10-27T22:01:35.951Z,45.22
2022-10-27T22:04:09.807Z,45.63
2022-10-27T22:09:23.450Z,44.28
2022-10-27T22:11:59.869Z,46.28
2022-10-27T22:14:36.814Z,47.20
2022-10-27T22:17:10.384Z,44.88
2022-10-27T22:19:43.898Z,44.35
2022-10-27T22:22:21.308Z,44.10
2022-10-27T22:24:59.375Z,42.97
2022-10-27T22:27:33.536Z,41.33
2022-10-27T22:30:11.023Z,40.72
2022-10-27T22:32:49.858Z,39.60
2022-10-27T22:35:23.368Z,41.42
2022-10-27T22:38:00.848Z,42.42
2022-10-27T22:40:34.345Z,39.97
2022-10-27T22:43:08.933Z,43.03
2022-10-27T22:45:44.748Z,38.58
2022-10-27T22:48:18.692Z,38.47
2022-10-27T22:50:59.726Z,37.20
2022-10-27T22:53:39.033Z,38.17
2022-10-27T22:56:16.062Z,36.92
2022-10-27T22:58:50.557Z,38.38
2022-10-27T23:01:26.935Z,38.78
2022-10-27T23:04:02.925Z,35.75
2022-10-27T23:06:38.468Z,38.72
2022-10-27T23:09:16.839Z,36.92
2022-10-27T23:11:50.614Z,37.38
2022-10-27T23:14:24.126Z,37.75
2022-10-27T23:16:59.246Z,37.88
2022-10-27T23:19:32.729Z,38.50
2022-10-27T23:22:06.126Z,36.35
2022-10-27T23:24:41.360Z,36.83
2022-10-27T23:27:14.898Z,36.33
2022-10-27T23:32:21.927Z,36.78
2022-10-27T23:37:28.708Z,35.05
2022-10-27T23:40:03.754Z,36.08
2022-10-27T23:42:37.291Z,36.15
2022-10-27T23:47:44.649Z,33.70
2022-10-27T23:50:18.334Z,33.05
2022-10-27T23:55:26.997Z,31.45
2022-10-27T23:58:00.707Z,33.75
